Time;durP1;ratioP1;P1;durP2;ratioP2;P2;SDS_P1;SDS_P2;PMS_P1;PMS_P2;Temp;Humidity;BMP_temperature;BMP_pressure;BME280_temperature;BME280_humidity;BME280_pressure;Samples;Min_cycle;Max_cycle;Signal;HPM_P1;HPM_P2
2022/03/27 00:01:18;;;;;;;10.37;5.73;;;;;;;;;;5054385;28;20185;-66
2022/03/27 00:03:44;;;;;;;9.50;6.63;;;;;;;;;;5036719;28;20178;-66
2022/03/27 00:06:10;;;;;;;7.67;5.30;;;;;;;;;;5036596;28;20182;-66
2022/03/27 00:08:36;;;;;;;9.67;6.03;;;;;;;;;;5054587;28;20261;-66
2022/03/27 00:13:47;;;;;;;10.83;7.00;;;;;;;;;;5054737;28;20281;-66
2022/03/27 00:16:13;;;;;;;9.13;6.30;;;;;;;;;;5054361;28;20213;-66
2022/03/27 00:18:41;;;;;;;9.73;6.63;;;;;;;;;;5036586;28;20174;-66
2022/03/27 00:21:07;;;;;;;10.67;6.63;;;;;;;;;;5054338;28;20285;-66
2022/03/27 00:23:33;;;;;;;10.80;6.47;;;;;;;;;;5036439;28;20742;-66
2022/03/27 00:25:59;;;;;;;12.33;7.37;;;;;;;;;;5054725;28;20180;-66
2022/03/27 00:28:25;;;;;;;10.47;6.40;;;;;;;;;;5036499;28;20215;-66
2022/03/27 00:30:51;;;;;;;8.37;6.40;;;;;;;;;;5036247;28;20187;-66
2022/03/27 00:33:18;;;;;;;10.23;6.90;;;;;;;;;;5054026;28;20230;-66
2022/03/27 00:35:44;;;;;;;10.63;6.90;;;;;;;;;;5036317;28;20182;-66
2022/03/27 00:38:10;;;;;;;9.90;7.50;;;;;;;;;;5036057;28;20273;-66
2022/03/27 00:40:36;;;;;;;12.07;7.50;;;;;;;;;;5035961;28;20206;-66
2022/03/27 00:43:03;;;;;;;10.60;7.00;;;;;;;;;;5053855;28;20203;-66
2022/03/27 00:45:29;;;;;;;11.60;7.97;;;;;;;;;;5053969;28;20670;-65
2022/03/27 00:47:55;;;;;;;11.10;8.10;;;;;;;;;;5054312;28;20206;-66
2022/03/27 00:50:21;;;;;;;12.03;7.40;;;;;;;;;;5054047;28;20182;-65
2022/03/27 00:52:47;;;;;;;9.80;7.40;;;;;;;;;;5036224;28;20263;-65
2022/03/27 00:55:13;;;;;;;10.43;7.80;;;;;;;;;;5040764;28;20186;-66
2022/03/27 00:57:39;;;;;;;9.47;7.27;;;;;;;;;;5063362;28;20174;-66
2022/03/27 01:00:08;;;;;;;11.87;8.30;;;;;;;;;;5060867;28;20211;-66
2022/03/27 01:02:35;;;;;;;11.93;8.40;;;;;;;;;;5042867;28;20201;-66
2022/03/27 01:05:08;;;;;;;11.23;8.20;;;;;;;;;;5056387;28;20178;-66
2022/03/27 01:07:34;;;;;;;11.30;8.17;;;;;;;;;;5054503;28;20167;-66
2022/03/27 01:10:00;;;;;;;11.53;8.57;;;;;;;;;;5053632;28;20179;-66
2022/03/27 01:12:29;;;;;;;12.17;8.40;;;;;;;;;;5053402;28;20213;-65
2022/03/27 01:14:55;;;;;;;10.30;8.77;;;;;;;;;;5035539;28;20633;-66
2022/03/27 01:17:24;;;;;;;14.77;9.57;;;;;;;;;;5035857;28;20594;-66
2022/03/27 01:19:51;;;;;;;11.63;9.10;;;;;;;;;;5053304;28;20202;-67
2022/03/27 01:22:19;;;;;;;11.57;8.53;;;;;;;;;;5053227;28;20726;-65
2022/03/27 01:24:45;;;;;;;13.83;9.97;;;;;;;;;;5035358;28;20261;-65
2022/03/27 01:27:12;;;;;;;10.10;9.00;;;;;;;;;;5053166;28;20174;-66
2022/03/27 01:29:38;;;;;;;10.87;9.47;;;;;;;;;;5035218;28;20224;-66
2022/03/27 01:32:04;;;;;;;11.17;8.90;;;;;;;;;;5035142;28;20743;-66
2022/03/27 01:34:31;;;;;;;13.60;8.80;;;;;;;;;;5053454;28;20646;-66
2022/03/27 01:37:01;;;;;;;11.43;8.77;;;;;;;;;;5035651;28;20646;-66
2022/03/27 01:39:27;;;;;;;13.03;9.37;;;;;;;;;;5035223;28;20198;-66
2022/03/27 01:41:53;;;;;;;11.43;9.07;;;;;;;;;;5052902;28;20205;-66
2022/03/27 01:44:20;;;;;;;12.43;9.67;;;;;;;;;;5035170;28;20185;-66
2022/03/27 01:46:47;;;;;;;12.03;8.83;;;;;;;;;;5053352;28;20182;-66
2022/03/27 01:49:13;;;;;;;13.00;9.77;;;;;;;;;;5053051;28;20233;-66
2022/03/27 01:51:40;;;;;;;12.37;9.83;;;;;;;;;;5053226;28;20658;-66
2022/03/27 01:54:07;;;;;;;14.83;10.50;;;;;;;;;;5053315;28;20257;-66
2022/03/27 01:56:33;;;;;;;12.53;9.90;;;;;;;;;;5035108;28;20189;-66
2022/03/27 01:58:59;;;;;;;14.27;9.80;;;;;;;;;;5035000;28;20183;-66
2022/03/27 02:01:25;;;;;;;12.63;10.23;;;;;;;;;;5053340;28;20258;-65
2022/03/27 02:03:51;;;;;;;11.93;9.90;;;;;;;;;;5053118;28;20178;-65
2022/03/27 02:06:18;;;;;;;11.47;10.07;;;;;;;;;;5052815;28;20154;-65
2022/03/27 02:08:44;;;;;;;14.70;10.67;;;;;;;;;;5053560;28;20202;-66
2022/03/27 02:11:10;;;;;;;13.73;10.73;;;;;;;;;;5052994;28;20183;-66
2022/03/27 02:13:36;;;;;;;15.40;11.73;;;;;;;;;;5034806;28;20218;-65
2022/03/27 02:16:03;;;;;;;14.63;11.70;;;;;;;;;;5052799;28;20182;-66
2022/03/27 02:18:30;;;;;;;15.67;12.07;;;;;;;;;;5053098;28;20202;-66
2022/03/27 02:20:56;;;;;;;15.43;11.77;;;;;;;;;;5052627;28;20236;-66
2022/03/27 02:23:23;;;;;;;17.33;12.03;;;;;;;;;;5054499;28;20198;-67
2022/03/27 02:25:49;;;;;;;15.70;12.27;;;;;;;;;;5056598;28;20519;-66
2022/03/27 02:28:15;;;;;;;16.50;13.00;;;;;;;;;;5056512;28;20174;-66
2022/03/27 02:30:42;;;;;;;16.40;12.73;;;;;;;;;;5038907;28;20189;-66
2022/03/27 02:33:08;;;;;;;16.07;12.97;;;;;;;;;;5038396;28;20210;-65
2022/03/27 02:35:34;;;;;;;18.10;13.10;;;;;;;;;;5038588;28;20281;-65
2022/03/27 02:38:00;;;;;;;22.20;13.93;;;;;;;;;;5059107;28;20181;-65
2022/03/27 02:40:26;;;;;;;17.87;14.20;;;;;;;;;;5041267;28;20681;-66
2022/03/27 02:42:52;;;;;;;15.93;14.00;;;;;;;;;;5059013;28;20194;-66
2022/03/27 02:45:18;;;;;;;21.80;15.40;;;;;;;;;;5058189;28;20181;-66
2022/03/27 02:47:44;;;;;;;19.13;14.37;;;;;;;;;;5056454;28;20201;-66
2022/03/27 02:50:10;;;;;;;16.93;14.73;;;;;;;;;;5038528;28;20658;-66
2022/03/27 02:52:36;;;;;;;18.30;15.50;;;;;;;;;;5056229;28;20299;-65
2022/03/27 02:55:03;;;;;;;19.67;16.30;;;;;;;;;;5056103;28;20178;-66
2022/03/27 02:57:29;;;;;;;21.33;16.93;;;;;;;;;;5055976;28;20183;-66
2022/03/27 02:59:55;;;;;;;20.30;16.93;;;;;;;;;;5056107;28;20674;-66
2022/03/27 03:02:21;;;;;;;18.23;16.33;;;;;;;;;;5037963;28;20199;-65
2022/03/27 03:04:47;;;;;;;20.97;17.30;;;;;;;;;;5055770;28;20182;-66
2022/03/27 03:07:16;;;;;;;21.13;17.60;;;;;;;;;;5055867;28;20178;-65
2022/03/27 03:09:43;;;;;;;20.70;17.97;;;;;;;;;;5037717;28;20185;-65
2022/03/27 03:12:10;;;;;;;21.40;18.33;;;;;;;;;;5055665;28;20217;-66
2022/03/27 03:14:36;;;;;;;23.87;18.20;;;;;;;;;;5055664;28;20174;-66
2022/03/27 03:17:04;;;;;;;21.97;17.80;;;;;;;;;;5055949;28;20185;-66
2022/03/27 03:19:30;;;;;;;27.80;18.30;;;;;;;;;;5055616;28;20190;-66
2022/03/27 03:21:56;;;;;;;25.00;18.40;;;;;;;;;;5037570;28;20205;-66
2022/03/27 03:24:24;;;;;;;22.87;18.40;;;;;;;;;;5055450;28;20179;-66
2022/03/27 03:26:50;;;;;;;26.10;20.23;;;;;;;;;;5055580;28;20175;-66
2022/03/27 03:29:16;;;;;;;32.77;24.07;;;;;;;;;;5055372;28;20185;-66
2022/03/27 03:31:42;;;;;;;39.57;29.33;;;;;;;;;;5055717;28;20203;-65
2022/03/27 03:34:08;;;;;;;43.47;28.20;;;;;;;;;;5055659;28;20179;-65
2022/03/27 03:36:34;;;;;;;56.50;34.47;;;;;;;;;;5037465;28;20228;-66
2022/03/27 03:39:00;;;;;;;66.13;37.70;;;;;;;;;;5055360;28;20187;-65
2022/03/27 03:41:26;;;;;;;72.57;39.43;;;;;;;;;;5037258;28;20201;-66
2022/03/27 03:43:52;;;;;;;73.53;37.63;;;;;;;;;;5055066;28;20171;-66
2022/03/27 03:46:18;;;;;;;72.97;40.90;;;;;;;;;;5055589;28;20622;-66
2022/03/27 03:48:44;;;;;;;80.23;42.10;;;;;;;;;;5055221;28;20525;-66
2022/03/27 03:51:10;;;;;;;74.77;42.10;;;;;;;;;;5055197;28;20182;-66
2022/03/27 03:53:36;;;;;;;93.13;46.00;;;;;;;;;;5055170;28;20201;-65
2022/03/27 03:56:02;;;;;;;97.33;47.23;;;;;;;;;;5054889;28;20174;-66
2022/03/27 03:58:28;;;;;;;93.13;48.27;;;;;;;;;;5055553;28;20232;-65
2022/03/27 04:00:54;;;;;;;104.60;50.57;;;;;;;;;;5055089;28;20198;-66
2022/03/27 04:03:20;;;;;;;90.60;46.87;;;;;;;;;;5054731;28;20230;-66
2022/03/27 04:05:47;;;;;;;90.03;43.00;;;;;;;;;;5054855;28;20210;-65
2022/03/27 04:08:14;;;;;;;81.03;42.80;;;;;;;;;;5054911;28;20171;-66
2022/03/27 04:10:41;;;;;;;91.07;43.30;;;;;;;;;;5054641;28;20199;-65
2022/03/27 04:13:07;;;;;;;86.63;45.70;;;;;;;;;;5054320;28;20210;-66
2022/03/27 04:15:33;;;;;;;68.87;39.33;;;;;;;;;;5054748;28;20277;-66
2022/03/27 04:18:00;;;;;;;71.93;39.97;;;;;;;;;;5054431;28;20189;-66
2022/03/27 04:20:26;;;;;;;69.17;40.67;;;;;;;;;;5054806;28;20201;-66
2022/03/27 04:22:52;;;;;;;63.53;38.07;;;;;;;;;;5054327;28;20198;-66
2022/03/27 04:25:18;;;;;;;67.00;37.47;;;;;;;;;;5054347;28;20531;-66
2022/03/27 04:27:44;;;;;;;68.70;40.30;;;;;;;;;;5036402;28;20706;-65
2022/03/27 04:30:10;;;;;;;73.13;39.10;;;;;;;;;;5036350;28;20558;-65
2022/03/27 04:32:37;;;;;;;67.67;39.67;;;;;;;;;;5054176;28;20195;-65
2022/03/27 04:35:04;;;;;;;62.37;38.57;;;;;;;;;;5036324;28;20186;-65
2022/03/27 04:37:30;;;;;;;76.57;41.50;;;;;;;;;;5036132;28;20186;-66
2022/03/27 04:40:02;;;;;;;72.67;40.27;;;;;;;;;;5054170;28;20198;-66
2022/03/27 04:42:29;;;;;;;77.37;44.17;;;;;;;;;;5053896;28;20573;-66
2022/03/27 04:44:55;;;;;;;81.77;43.30;;;;;;;;;;5054102;28;20175;-66
2022/03/27 04:47:21;;;;;;;77.67;43.37;;;;;;;;;;5053662;28;20184;-65
2022/03/27 04:49:47;;;;;;;78.00;42.23;;;;;;;;;;5053990;28;20609;-65
2022/03/27 04:52:13;;;;;;;84.27;43.53;;;;;;;;;;5053819;28;20206;-65
2022/03/27 04:54:39;;;;;;;86.53;45.90;;;;;;;;;;5053773;28;20174;-65
2022/03/27 04:57:05;;;;;;;93.33;45.77;;;;;;;;;;5053715;28;20178;-66
2022/03/27 04:59:31;;;;;;;96.47;47.00;;;;;;;;;;5053874;28;20285;-66
2022/03/27 05:01:58;;;;;;;91.67;47.53;;;;;;;;;;5053908;28;20201;-65
2022/03/27 05:04:24;;;;;;;94.00;46.03;;;;;;;;;;5053866;28;20177;-65
2022/03/27 05:06:50;;;;;;;108.67;48.47;;;;;;;;;;5053700;28;20244;-65
2022/03/27 05:09:18;;;;;;;116.57;53.23;;;;;;;;;;5053749;28;20601;-65
2022/03/27 05:11:43;;;;;;;124.37;51.93;;;;;;;;;;5035523;28;20214;-65
2022/03/27 05:14:09;;;;;;;115.70;51.57;;;;;;;;;;5079369;22;20288;-61
2022/03/27 05:16:35;;;;;;;132.57;55.70;;;;;;;;;;5036100;28;20175;-60
2022/03/27 05:19:01;;;;;;;141.20;58.13;;;;;;;;;;5053983;28;20287;-62
2022/03/27 05:21:27;;;;;;;142.63;57.47;;;;;;;;;;5053740;28;20182;-61
2022/03/27 05:23:53;;;;;;;132.00;55.63;;;;;;;;;;5036186;28;20252;-61
2022/03/27 05:26:20;;;;;;;126.20;52.97;;;;;;;;;;5039105;28;20216;-61
2022/03/27 05:28:46;;;;;;;123.77;54.20;;;;;;;;;;5057414;28;20174;-61
2022/03/27 05:31:12;;;;;;;117.47;51.83;;;;;;;;;;5056758;28;20178;-61
2022/03/27 05:33:38;;;;;;;113.50;50.97;;;;;;;;;;5036984;28;20202;-61
2022/03/27 05:36:08;;;;;;;112.47;51.43;;;;;;;;;;5036213;28;20189;-61
2022/03/27 05:38:34;;;;;;;109.07;50.93;;;;;;;;;;5053844;28;20233;-61
2022/03/27 05:41:01;;;;;;;90.27;47.37;;;;;;;;;;5036590;28;20198;-63
2022/03/27 05:43:27;;;;;;;95.70;47.00;;;;;;;;;;5053802;28;20205;-61
2022/03/27 05:45:53;;;;;;;92.97;46.90;;;;;;;;;;5054147;28;20257;-61
2022/03/27 05:48:19;;;;;;;89.93;46.00;;;;;;;;;;5054525;28;20182;-62
2022/03/27 05:50:45;;;;;;;88.33;44.93;;;;;;;;;;5053961;28;20179;-62
2022/03/27 05:53:11;;;;;;;86.70;44.13;;;;;;;;;;5035834;28;20579;-62
2022/03/27 05:55:37;;;;;;;83.60;44.27;;;;;;;;;;5054236;28;20182;-62
2022/03/27 05:58:03;;;;;;;92.50;46.07;;;;;;;;;;5037349;28;20209;-62
2022/03/27 06:00:29;;;;;;;97.20;47.50;;;;;;;;;;5039731;28;20206;-62
2022/03/27 06:02:55;;;;;;;90.33;44.77;;;;;;;;;;5057828;28;20681;-62
2022/03/27 06:05:25;;;;;;;103.37;48.83;;;;;;;;;;5039763;28;20175;-62
2022/03/27 06:07:55;;;;;;;98.57;47.30;;;;;;;;;;5058021;28;20272;-62
2022/03/27 06:10:25;;;;;;;91.73;46.47;;;;;;;;;;5040032;28;20643;-62
2022/03/27 06:12:51;;;;;;;100.37;49.43;;;;;;;;;;5057676;28;20661;-62
2022/03/27 06:15:18;;;;;;;94.63;47.20;;;;;;;;;;5039856;28;20623;-62
2022/03/27 06:17:48;;;;;;;101.13;49.37;;;;;;;;;;5057897;28;20178;-62
2022/03/27 06:20:15;;;;;;;98.00;47.73;;;;;;;;;;5057244;28;20677;-62
2022/03/27 06:22:42;;;;;;;91.90;46.67;;;;;;;;;;5057601;28;20174;-62
2022/03/27 06:25:09;;;;;;;80.93;44.10;;;;;;;;;;5040173;28;20202;-62
2022/03/27 06:27:35;;;;;;;81.77;42.50;;;;;;;;;;5057864;28;20171;-62
2022/03/27 06:30:01;;;;;;;83.47;43.13;;;;;;;;;;5058230;28;20193;-62
2022/03/27 06:32:27;;;;;;;94.10;45.70;;;;;;;;;;5039641;28;20229;-62
2022/03/27 06:34:57;;;;;;;93.40;45.80;;;;;;;;;;5039720;28;20275;-62
2022/03/27 06:37:23;;;;;;;86.23;46.37;;;;;;;;;;5039809;28;20190;-62
2022/03/27 06:39:49;;;;;;;84.07;49.13;;;;;;;;;;5058112;28;20202;-62
2022/03/27 06:42:16;;;;;;;89.57;48.23;;;;;;;;;;5039555;28;20197;-63
2022/03/27 06:44:42;;;;;;;97.10;48.00;;;;;;;;;;5057125;28;20189;-62
2022/03/27 06:47:08;;;;;;;100.53;49.60;;;;;;;;;;5057491;28;20166;-63
2022/03/27 06:49:35;;;;;;;90.60;46.50;;;;;;;;;;5057704;28;20166;-63
2022/03/27 06:52:01;;;;;;;85.00;44.47;;;;;;;;;;5057480;28;20178;-64
2022/03/27 06:54:29;;;;;;;82.80;46.00;;;;;;;;;;5040312;28;20203;-62
2022/03/27 06:56:55;;;;;;;85.40;43.77;;;;;;;;;;5039602;28;20178;-62
2022/03/27 06:59:21;;;;;;;77.13;43.47;;;;;;;;;;5039602;28;20269;-62
2022/03/27 07:04:32;;;;;;;70.80;41.03;;;;;;;;;;5058321;28;20207;-62
2022/03/27 07:06:58;;;;;;;70.47;41.17;;;;;;;;;;5064909;28;20173;-63
2022/03/27 07:09:24;;;;;;;67.67;36.03;;;;;;;;;;5052575;28;20182;-62
2022/03/27 07:11:50;;;;;;;55.70;34.17;;;;;;;;;;5053653;28;20182;-63
2022/03/27 07:14:16;;;;;;;61.43;35.67;;;;;;;;;;5068568;28;20218;-63
2022/03/27 07:16:42;;;;;;;64.40;39.03;;;;;;;;;;5059019;28;20185;-62
2022/03/27 07:19:10;;;;;;;68.67;39.93;;;;;;;;;;5058272;28;20182;-62
2022/03/27 07:21:36;;;;;;;59.30;35.93;;;;;;;;;;5038958;28;20626;-62
2022/03/27 07:24:02;;;;;;;65.30;38.10;;;;;;;;;;5038780;28;20198;-62
2022/03/27 07:26:28;;;;;;;62.30;37.60;;;;;;;;;;5056832;28;20178;-62
2022/03/27 07:28:54;;;;;;;62.50;35.73;;;;;;;;;;5057559;28;20221;-63
2022/03/27 07:31:20;;;;;;;61.33;36.63;;;;;;;;;;5056764;28;20204;-62
2022/03/27 07:33:46;;;;;;;62.43;35.73;;;;;;;;;;5056485;28;20207;-62
2022/03/27 07:36:12;;;;;;;64.43;34.23;;;;;;;;;;5038533;28;20228;-62
2022/03/27 07:38:38;;;;;;;57.50;32.63;;;;;;;;;;5056776;28;20665;-64
2022/03/27 07:41:04;;;;;;;56.23;34.87;;;;;;;;;;5056585;28;20210;-62
2022/03/27 07:43:32;;;;;;;62.07;36.33;;;;;;;;;;5056424;28;20226;-62
2022/03/27 07:45:58;;;;;;;55.43;34.77;;;;;;;;;;5038225;28;20182;-62
2022/03/27 07:48:24;;;;;;;62.40;35.60;;;;;;;;;;5038284;28;20269;-63
2022/03/27 07:50:54;;;;;;;60.40;35.20;;;;;;;;;;5056077;28;20174;-63
2022/03/27 07:53:20;;;;;;;53.37;34.30;;;;;;;;;;5038723;28;20202;-63
2022/03/27 07:55:46;;;;;;;58.03;33.77;;;;;;;;;;5038505;28;20309;-63
2022/03/27 07:58:12;;;;;;;63.70;35.47;;;;;;;;;;5056595;28;20551;-62
2022/03/27 08:00:38;;;;;;;61.83;34.50;;;;;;;;;;5056646;28;20202;-62
2022/03/27 08:03:04;;;;;;;62.47;35.40;;;;;;;;;;5056369;28;20190;-62
2022/03/27 08:05:30;;;;;;;66.97;38.73;;;;;;;;;;5038186;28;20184;-62
2022/03/27 08:07:56;;;;;;;74.40;41.20;;;;;;;;;;5055996;28;20175;-62
2022/03/27 08:10:22;;;;;;;78.37;43.20;;;;;;;;;;5056195;28;20178;-62
2022/03/27 08:12:49;;;;;;;87.10;47.90;;;;;;;;;;5056496;28;20192;-62
2022/03/27 08:15:15;;;;;;;79.20;41.53;;;;;;;;;;5038201;28;20178;-62
2022/03/27 08:17:41;;;;;;;69.03;40.50;;;;;;;;;;5056213;28;20170;-62
2022/03/27 08:20:08;;;;;;;75.67;42.70;;;;;;;;;;5020981;28;20209;-62
2022/03/27 08:22:34;;;;;;;65.60;38.97;;;;;;;;;;5037883;28;20200;-62
2022/03/27 08:25:00;;;;;;;79.67;46.07;;;;;;;;;;5056037;28;20175;-62
2022/03/27 08:27:27;;;;;;;113.80;63.43;;;;;;;;;;5055613;28;20298;-62
2022/03/27 08:29:53;;;;;;;96.80;53.00;;;;;;;;;;5055497;28;20202;-62
2022/03/27 08:32:19;;;;;;;83.47;44.47;;;;;;;;;;5056222;28;20183;-62
2022/03/27 08:34:46;;;;;;;64.03;38.57;;;;;;;;;;5055779;28;20576;-62
2022/03/27 08:37:13;;;;;;;73.60;43.20;;;;;;;;;;5037415;28;20611;-62
2022/03/27 08:39:41;;;;;;;71.47;41.53;;;;;;;;;;5037194;28;20256;-62
2022/03/27 08:42:07;;;;;;;70.00;42.30;;;;;;;;;;5020727;28;20273;-62
2022/03/27 08:44:35;;;;;;;69.90;41.17;;;;;;;;;;5054843;28;20194;-62
2022/03/27 08:47:02;;;;;;;82.23;46.27;;;;;;;;;;5055292;28;20266;-64
2022/03/27 08:49:30;;;;;;;68.40;41.33;;;;;;;;;;5055006;28;20170;-63
2022/03/27 08:51:57;;;;;;;75.50;43.50;;;;;;;;;;5037148;28;20190;-64
2022/03/27 08:54:24;;;;;;;67.97;40.43;;;;;;;;;;5055379;28;20276;-62
2022/03/27 08:57:02;;;;;;;66.30;39.97;;;;;;;;;;5055563;28;20183;-64
2022/03/27 08:59:28;;;;;;;92.90;52.00;;;;;;;;;;5037331;28;20202;-63
2022/03/27 09:01:54;;;;;;;67.67;41.77;;;;;;;;;;5055879;28;20178;-63
2022/03/27 09:04:20;;;;;;;66.67;40.13;;;;;;;;;;5055619;28;20194;-63
2022/03/27 09:06:46;;;;;;;63.27;39.53;;;;;;;;;;5037809;28;20186;-63
2022/03/27 09:09:12;;;;;;;70.47;41.90;;;;;;;;;;5037312;28;20186;-63
2022/03/27 09:11:39;;;;;;;73.83;43.07;;;;;;;;;;5037169;28;20174;-63
2022/03/27 09:14:05;;;;;;;64.40;42.20;;;;;;;;;;5055112;28;20206;-63
2022/03/27 09:16:51;;;;;;;60.37;38.27;;;;;;;;;;5037605;28;20202;-62
2022/03/27 09:19:31;;;;;;;53.97;35.73;;;;;;;;;;5036840;28;20182;-63
2022/03/27 09:21:59;;;;;;;51.17;34.63;;;;;;;;;;5036825;28;20692;-63
2022/03/27 09:24:32;;;;;;;49.37;34.57;;;;;;;;;;5036845;28;20572;-63
2022/03/27 09:27:00;;;;;;;49.90;34.57;;;;;;;;;;5054406;28;20166;-63
2022/03/27 09:29:26;;;;;;;51.77;36.37;;;;;;;;;;5036984;28;20631;-63
2022/03/27 09:31:58;;;;;;;51.57;36.10;;;;;;;;;;5036974;28;20213;-63
2022/03/27 09:34:24;;;;;;;52.00;34.27;;;;;;;;;;5037464;28;20217;-63
2022/03/27 09:36:51;;;;;;;52.37;34.60;;;;;;;;;;5055485;28;20179;-63
2022/03/27 09:39:22;;;;;;;52.37;35.70;;;;;;;;;;5037281;28;20189;-63
2022/03/27 09:41:51;;;;;;;51.73;34.47;;;;;;;;;;5037247;28;20182;-64
2022/03/27 09:44:17;;;;;;;52.07;33.63;;;;;;;;;;5054602;28;20759;-63
2022/03/27 09:47:01;;;;;;;53.03;35.37;;;;;;;;;;5055078;28;20179;-63
2022/03/27 09:49:30;;;;;;;50.27;34.43;;;;;;;;;;5054813;28;20167;-65
2022/03/27 09:52:10;;;;;;;53.20;36.47;;;;;;;;;;5055177;28;20189;-60
2022/03/27 09:54:48;;;;;;;48.83;34.17;;;;;;;;;;5055375;28;20269;-60
2022/03/27 09:57:17;;;;;;;47.87;33.70;;;;;;;;;;5037576;28;20273;-61
2022/03/27 09:59:45;;;;;;;48.13;33.77;;;;;;;;;;5055211;28;20206;-61
2022/03/27 10:02:20;;;;;;;47.43;32.27;;;;;;;;;;5037875;28;20526;-61
2022/03/27 10:04:53;;;;;;;42.43;31.47;;;;;;;;;;5055249;28;20204;-61
2022/03/27 10:07:19;;;;;;;46.60;31.47;;;;;;;;;;5055280;28;20175;-61
2022/03/27 10:09:45;;;;;;;44.27;31.47;;;;;;;;;;5055771;28;20228;-62
2022/03/27 10:12:14;;;;;;;38.37;29.53;;;;;;;;;;5037651;28;20175;-61
2022/03/27 10:14:41;;;;;;;37.40;26.83;;;;;;;;;;5037070;28;20214;-61
2022/03/27 10:17:09;;;;;;;41.13;28.93;;;;;;;;;;5037592;28;20643;-63
2022/03/27 10:19:39;;;;;;;35.37;27.63;;;;;;;;;;5055989;28;20203;-61
2022/03/27 10:22:05;;;;;;;31.73;23.87;;;;;;;;;;5055196;28;20177;-62
2022/03/27 10:24:32;;;;;;;33.07;24.73;;;;;;;;;;5055521;28;20199;-62
2022/03/27 10:27:02;;;;;;;31.00;23.87;;;;;;;;;;5037417;28;20638;-62
2022/03/27 10:29:29;;;;;;;31.90;24.23;;;;;;;;;;5055883;28;20186;-62
2022/03/27 10:31:56;;;;;;;29.80;21.67;;;;;;;;;;5056152;28;20214;-62
2022/03/27 10:34:22;;;;;;;34.27;24.53;;;;;;;;;;5039044;28;20202;-62
2022/03/27 10:37:06;;;;;;;33.60;23.37;;;;;;;;;;5057243;28;20646;-62
2022/03/27 10:39:46;;;;;;;32.67;24.23;;;;;;;;;;5057506;28;20207;-62
2022/03/27 10:42:15;;;;;;;27.57;21.47;;;;;;;;;;5063152;28;20223;-62
2022/03/27 10:44:59;;;;;;;30.17;23.80;;;;;;;;;;5072948;28;20203;-64
2022/03/27 10:47:25;;;;;;;27.50;22.87;;;;;;;;;;5059776;28;20178;-63
2022/03/27 10:50:01;;;;;;;28.20;22.70;;;;;;;;;;5075812;28;20189;-64
2022/03/27 10:52:27;;;;;;;29.73;23.10;;;;;;;;;;5076173;28;20215;-63
2022/03/27 10:55:00;;;;;;;29.27;23.27;;;;;;;;;;5075896;28;20670;-63
2022/03/27 10:57:30;;;;;;;31.37;24.27;;;;;;;;;;5077014;28;20167;-63
2022/03/27 10:59:57;;;;;;;30.17;23.07;;;;;;;;;;5076632;28;20216;-61
2022/03/27 11:02:43;;;;;;;28.50;22.23;;;;;;;;;;5076026;28;20182;-62
2022/03/27 11:05:30;;;;;;;28.70;21.33;;;;;;;;;;5074378;28;20151;-62
2022/03/27 11:08:15;;;;;;;27.47;20.50;;;;;;;;;;5075906;28;20177;-63
2022/03/27 11:10:41;;;;;;;23.80;18.33;;;;;;;;;;5072569;28;20181;-61
2022/03/27 11:13:29;;;;;;;27.50;21.10;;;;;;;;;;5073968;28;20245;-61
2022/03/27 11:16:05;;;;;;;26.37;20.80;;;;;;;;;;5074716;28;20161;-62
2022/03/27 11:18:59;;;;;;;25.67;18.93;;;;;;;;;;5076281;28;20205;-63
2022/03/27 11:21:28;;;;;;;26.73;20.53;;;;;;;;;;5074160;28;20293;-63
2022/03/27 11:23:55;;;;;;;28.23;20.73;;;;;;;;;;5076135;28;20194;-62
2022/03/27 11:26:21;;;;;;;24.47;19.57;;;;;;;;;;5057710;28;20205;-62
2022/03/27 11:28:54;;;;;;;25.37;20.63;;;;;;;;;;5074934;28;20182;-63
2022/03/27 11:31:25;;;;;;;27.10;19.87;;;;;;;;;;5074436;28;20185;-62
2022/03/27 11:34:03;;;;;;;27.90;19.40;;;;;;;;;;5075448;28;20214;-64
2022/03/27 11:36:29;;;;;;;26.43;19.70;;;;;;;;;;5074610;28;20174;-62
2022/03/27 11:38:58;;;;;;;23.07;18.33;;;;;;;;;;5059100;28;20173;-62
2022/03/27 11:41:43;;;;;;;24.40;17.47;;;;;;;;;;5068214;28;20195;-63
2022/03/27 11:45:06;;;;;;;21.60;17.20;;;;;;;;;;5072519;28;20190;-63
2022/03/27 11:47:11;;;;;;;22.90;18.63;;;;;;;;;;5064755;28;20189;-63
2022/03/27 11:49:38;;;;;;;27.93;19.00;;;;;;;;;;5059668;28;20174;-62
2022/03/27 11:52:08;;;;;;;22.10;17.63;;;;;;;;;;5039652;28;20654;-63
2022/03/27 11:54:34;;;;;;;18.53;15.73;;;;;;;;;;5057501;28;20187;-62
2022/03/27 11:57:01;;;;;;;20.87;14.93;;;;;;;;;;5057878;28;20180;-62
2022/03/27 11:59:28;;;;;;;17.50;14.70;;;;;;;;;;5062069;28;20232;-62
2022/03/27 12:01:58;;;;;;;20.80;15.80;;;;;;;;;;5060796;28;20226;-62
2022/03/27 12:04:25;;;;;;;19.47;16.17;;;;;;;;;;5060114;28;20191;-63
2022/03/27 12:06:54;;;;;;;18.87;14.57;;;;;;;;;;5061922;28;20173;-62
2022/03/27 12:09:28;;;;;;;17.40;14.67;;;;;;;;;;5058266;28;20175;-62
2022/03/27 12:12:09;;;;;;;17.23;14.93;;;;;;;;;;5080366;22;20226;-62
2022/03/27 12:14:50;;;;;;;21.50;16.60;;;;;;;;;;5055034;28;20639;-62
2022/03/27 12:17:16;;;;;;;20.47;16.17;;;;;;;;;;5036659;28;20547;-62
2022/03/27 12:19:56;;;;;;;18.17;14.60;;;;;;;;;;5054629;28;20232;-62
2022/03/27 12:22:31;;;;;;;19.30;14.47;;;;;;;;;;5054333;28;20682;-62
2022/03/27 12:24:57;;;;;;;21.00;16.30;;;;;;;;;;5036706;28;20173;-62
2022/03/27 12:30:09;;;;;;;18.33;15.30;;;;;;;;;;5054447;28;20173;-62
2022/03/27 12:32:36;;;;;;;18.33;14.93;;;;;;;;;;5054137;28;20221;-63
2022/03/27 12:35:02;;;;;;;18.50;15.37;;;;;;;;;;5054203;28;20185;-63
2022/03/27 12:37:31;;;;;;;21.83;18.10;;;;;;;;;;5054356;28;20193;-62
2022/03/27 12:39:57;;;;;;;20.87;16.87;;;;;;;;;;5036288;28;20205;-63
2022/03/27 12:42:29;;;;;;;21.00;16.83;;;;;;;;;;5036240;28;20198;-63
2022/03/27 12:44:59;;;;;;;19.93;15.97;;;;;;;;;;5054468;28;20554;-63
2022/03/27 12:47:32;;;;;;;21.00;15.40;;;;;;;;;;5054461;28;20191;-63
2022/03/27 12:49:58;;;;;;;19.27;16.30;;;;;;;;;;5053989;28;20174;-63
2022/03/27 12:52:24;;;;;;;20.47;15.90;;;;;;;;;;5053965;28;20225;-63
2022/03/27 12:54:57;;;;;;;19.67;14.53;;;;;;;;;;5035920;28;20222;-65
2022/03/27 12:57:24;;;;;;;20.07;16.23;;;;;;;;;;5053902;28;20261;-62
2022/03/27 12:59:50;;;;;;;19.57;16.13;;;;;;;;;;5054111;28;20216;-64
2022/03/27 13:02:22;;;;;;;18.87;15.63;;;;;;;;;;5053640;28;20623;-63
2022/03/27 13:05:00;;;;;;;19.53;15.67;;;;;;;;;;5053727;28;20174;-63
2022/03/27 13:07:44;;;;;;;17.37;13.97;;;;;;;;;;5053303;28;20170;-64
2022/03/27 13:10:11;;;;;;;16.20;13.23;;;;;;;;;;5035798;28;20193;-64
2022/03/27 13:12:37;;;;;;;15.23;12.23;;;;;;;;;;5053932;28;20241;-63
2022/03/27 13:15:03;;;;;;;15.23;11.70;;;;;;;;;;5053451;28;20263;-63
2022/03/27 13:17:29;;;;;;;17.40;12.33;;;;;;;;;;5053574;28;20178;-63
2022/03/27 13:19:55;;;;;;;15.37;10.97;;;;;;;;;;5053521;28;20209;-62
2022/03/27 13:22:21;;;;;;;16.33;12.80;;;;;;;;;;5053519;28;20202;-63
2022/03/27 13:24:51;;;;;;;14.23;11.23;;;;;;;;;;5053672;28;20544;-63
2022/03/27 13:27:17;;;;;;;12.07;10.57;;;;;;;;;;5035352;28;20178;-63
2022/03/27 13:29:43;;;;;;;14.13;10.80;;;;;;;;;;5053320;28;20178;-63
2022/03/27 13:32:09;;;;;;;14.27;10.43;;;;;;;;;;5053458;28;20194;-63
2022/03/27 13:34:35;;;;;;;12.30;10.07;;;;;;;;;;5035211;28;20213;-63
2022/03/27 13:37:01;;;;;;;14.47;10.73;;;;;;;;;;5053228;28;20662;-64
2022/03/27 13:39:28;;;;;;;13.60;10.00;;;;;;;;;;5053425;28;20174;-63
2022/03/27 13:44:39;;;;;;;13.40;8.60;;;;;;;;;;5053139;28;20189;-63
2022/03/27 13:47:05;;;;;;;11.63;9.13;;;;;;;;;;5053377;28;20186;-63
2022/03/27 13:49:31;;;;;;;11.20;8.60;;;;;;;;;;5053435;28;20179;-63
2022/03/27 13:51:59;;;;;;;10.37;8.03;;;;;;;;;;5053331;28;20218;-63
2022/03/27 13:54:25;;;;;;;10.83;7.53;;;;;;;;;;5053314;28;20190;-63
2022/03/27 13:56:51;;;;;;;10.07;7.73;;;;;;;;;;5053067;28;20556;-64
2022/03/27 13:59:18;;;;;;;9.27;7.53;;;;;;;;;;5053393;28;20258;-63
2022/03/27 14:01:45;;;;;;;9.53;7.37;;;;;;;;;;5035017;28;20202;-62
2022/03/27 14:04:11;;;;;;;9.23;7.10;;;;;;;;;;5053099;28;20713;-63
2022/03/27 14:06:37;;;;;;;8.07;6.60;;;;;;;;;;5053342;28;20514;-63
2022/03/27 14:09:04;;;;;;;9.67;6.53;;;;;;;;;;5052854;28;20642;-64
2022/03/27 14:11:31;;;;;;;8.27;6.13;;;;;;;;;;5052891;28;20289;-64
2022/03/27 14:13:57;;;;;;;6.93;6.17;;;;;;;;;;5053207;28;20320;-64
2022/03/27 14:16:23;;;;;;;7.77;6.33;;;;;;;;;;5053382;28;20644;-64
2022/03/27 14:18:49;;;;;;;7.93;5.87;;;;;;;;;;5035956;28;20269;-63
2022/03/27 14:21:16;;;;;;;9.00;6.17;;;;;;;;;;5038979;28;20220;-63
2022/03/27 14:23:42;;;;;;;8.53;6.13;;;;;;;;;;5057072;28;20189;-63
2022/03/27 14:26:08;;;;;;;;;;;;;;;;;;5057179;28;20467;-64
2022/03/27 14:28:34;;;;;;;;;;;;;;;;;;5039126;28;20365;-64
2022/03/27 14:31:00;;;;;;;;;;;;;;;;;;5056940;28;19905;-64
2022/03/27 14:33:26;;;;;;;;;;;;;;;;;;5057261;28;19905;-64
2022/03/27 14:35:52;;;;;;;;;;;;;;;;;;5057268;28;20383;-63